Terminal Aerodrome Forecast
Issued by NWS Wilmington, OH

Current Version | Previous Version | Graphics & Text | Print | Product List | Glossary On
Versions: 1 2 3 4 5 6 7 8 9 10 11 12 13 14 15 16 17 18
000
FTUS41 KILN 181100 RRA
TAFCMH
TAF
KCMH 181153Z 1812/1912 28007KT P6SM OVC025
     FM181400 28006KT P6SM OVC018
     FM181700 28005KT P6SM OVC025
     FM182000 27005KT P6SM SCT035 OVC120
     FM190400 28004KT P6SM OVC060=

USA.gov is the U.S. government's official web portal to all federal, state and local government web resources and services.